Time;durP1;ratioP1;P1;durP2;ratioP2;P2;SDS_P1;SDS_P2;PMS_P1;PMS_P2;Temp;Humidity;BMP_temperature;BMP_pressure;BME280_temperature;BME280_humidity;BME280_pressure;Samples;Min_cycle;Max_cycle;Signal;HPM_P1;HPM_P2
2021/08/14 00:01:20;;;;;;;21.17;14.40;;;17.30;1.00;;;;;;5074648;28;20943;-81
2021/08/14 00:03:48;;;;;;;26.93;15.20;;;17.30;1.00;;;;;;5074641;28;20386;-81
2021/08/14 00:06:18;;;;;;;21.27;13.10;;;17.30;1.00;;;;;;5073086;28;20509;-83
2021/08/14 00:08:48;;;;;;;26.57;13.90;;;17.30;1.00;;;;;;5066330;28;20447;-81
2021/08/14 00:11:54;;;;;;;24.40;14.80;;;17.30;1.00;;;;;;5074709;28;20807;-81
2021/08/14 00:14:24;;;;;;;31.77;14.57;;;17.20;1.00;;;;;;5073347;28;20388;-81
2021/08/14 00:16:55;;;;;;;29.33;16.10;;;17.20;1.00;;;;;;5070853;28;20486;-81
2021/08/14 00:19:24;;;;;;;31.17;13.80;;;17.20;1.00;;;;;;5070328;28;20526;-81
2021/08/14 00:21:50;;;;;;;25.93;15.90;;;17.10;1.00;;;;;;5054519;28;20444;-81
2021/08/14 00:24:25;;;;;;;25.10;14.03;;;17.10;1.00;;;;;;5063761;28;20448;-81
2021/08/14 00:26:51;;;;;;;23.30;13.30;;;17.10;1.00;;;;;;5071324;28;20563;-81
2021/08/14 00:29:18;;;;;;;24.57;14.83;;;17.00;1.00;;;;;;5052680;28;20411;-81
2021/08/14 00:31:44;;;;;;;23.43;14.90;;;17.00;1.00;;;;;;5053643;28;20445;-81
2021/08/14 00:34:10;;;;;;;32.97;14.70;;;17.00;1.00;;;;;;5065998;28;20465;-81
2021/08/14 00:36:36;;;;;;;28.00;13.83;;;17.00;1.00;;;;;;5073895;28;20518;-81
2021/08/14 00:39:07;;;;;;;31.50;15.07;;;17.00;1.00;;;;;;5058267;28;20377;-81
2021/08/14 00:41:50;;;;;;;23.90;15.40;;;16.90;1.00;;;;;;5072966;28;20380;-81
2021/08/14 00:44:25;;;;;;;24.77;15.40;;;16.90;1.00;;;;;;5074123;28;20418;-81
2021/08/14 00:46:51;;;;;;;31.43;15.33;;;16.90;1.00;;;;;;5074038;28;20414;-81
2021/08/14 00:49:17;;;;;;;26.53;14.97;;;16.90;1.00;;;;;;5065464;28;20401;-81
2021/08/14 00:51:49;;;;;;;25.20;15.33;;;16.90;1.00;;;;;;5053960;28;20205;-81
2021/08/14 00:54:38;;;;;;;24.63;14.83;;;16.90;1.00;;;;;;5060750;28;20253;-81
2021/08/14 00:57:18;;;;;;;26.93;14.40;;;16.80;1.00;;;;;;5081316;28;20403;-82
2021/08/14 00:59:55;;;;;;;28.40;13.87;;;16.80;1.00;;;;;;5069333;28;20414;-81
2021/08/14 01:02:24;;;;;;;27.53;14.00;;;16.80;1.00;;;;;;5064147;28;20414;-81
2021/08/14 01:05:01;;;;;;;23.93;15.30;;;16.70;1.00;;;;;;5074071;28;20867;-81
2021/08/14 01:07:30;;;;;;;24.97;14.20;;;16.70;1.00;;;;;;5073290;28;20751;-81
2021/08/14 01:09:56;;;;;;;24.87;15.10;;;16.80;1.00;;;;;;5073686;28;20409;-81
2021/08/14 01:12:25;;;;;;;29.30;14.77;;;16.70;1.00;;;;;;5073545;28;20425;-81
2021/08/14 01:15:42;;;;;;;31.43;14.60;;;16.60;1.00;;;;;;5073683;28;20159;-81
2021/08/14 01:18:24;;;;;;;27.40;14.80;;;16.60;1.00;;;;;;5057351;28;20385;-81
2021/08/14 01:21:19;;;;;;;38.73;15.27;;;16.60;1.00;;;;;;5053608;28;20805;-81
2021/08/14 01:23:50;;;;;;;30.50;15.10;;;16.50;1.00;;;;;;5059363;28;20982;-81
2021/08/14 01:26:31;;;;;;;27.63;14.93;;;16.50;1.00;;;;;;5073498;28;20507;-81
2021/08/14 01:29:13;;;;;;;24.60;15.30;;;16.50;1.00;;;;;;5073596;28;20372;-81
2021/08/14 01:32:24;;;;;;;30.03;15.47;;;16.40;1.00;;;;;;5072088;28;20532;-80
2021/08/14 01:34:55;;;;;;;26.63;15.40;;;16.40;1.00;;;;;;5072639;28;20466;-81
2021/08/14 01:37:27;;;;;;;26.07;14.30;;;16.40;1.00;;;;;;5073395;28;20442;-81
2021/08/14 01:39:55;;;;;;;24.23;15.20;;;16.40;1.00;;;;;;5073244;28;20426;-81
2021/08/14 01:42:25;;;;;;;24.40;14.60;;;16.40;1.00;;;;;;5068542;28;20389;-81
2021/08/14 01:44:54;;;;;;;20.30;13.23;;;16.40;1.00;;;;;;5070896;28;20405;-81
2021/08/14 01:47:25;;;;;;;28.03;14.53;;;16.30;1.00;;;;;;5073137;28;20920;-81
2021/08/14 01:50:00;;;;;;;29.73;14.97;;;16.30;1.00;;;;;;5073490;28;20761;-81
2021/08/14 01:52:52;;;;;;;28.37;14.03;;;16.30;1.00;;;;;;5073244;28;20438;-81
2021/08/14 01:56:00;;;;;;;25.97;13.90;;;16.30;1.00;;;;;;5053280;28;20365;-81
2021/08/14 01:58:31;;;;;;;23.53;13.43;;;16.30;1.00;;;;;;5053242;28;20361;-81
2021/08/14 02:01:01;;;;;;;32.23;14.90;;;16.30;1.00;;;;;;5052059;28;20871;-81
2021/08/14 02:03:26;;;;;;;26.57;14.60;;;16.20;1.00;;;;;;5057500;28;20891;-81
2021/08/14 02:06:02;;;;;;;22.53;13.17;;;16.20;1.00;;;;;;5071741;28;20463;-81
2021/08/14 02:08:28;;;;;;;22.40;13.57;;;16.20;1.00;;;;;;5071888;28;20167;-81
2021/08/14 02:11:03;;;;;;;29.50;13.90;;;16.10;1.00;;;;;;5073361;28;20791;-81
2021/08/14 02:13:30;;;;;;;24.50;14.53;;;16.10;1.00;;;;;;5073376;28;20396;-80
2021/08/14 02:16:01;;;;;;;27.10;14.43;;;16.10;1.00;;;;;;5072363;28;20902;-81
2021/08/14 02:18:38;;;;;;;22.27;13.30;;;16.10;1.00;;;;;;5057372;28;20390;-81
2021/08/14 02:21:04;;;;;;;19.00;12.73;;;16.10;1.00;;;;;;5057015;28;20434;-80
2021/08/14 02:23:37;;;;;;;25.70;13.70;;;16.10;1.00;;;;;;5066049;28;20733;-81
2021/08/14 02:26:07;;;;;;;26.00;13.30;;;16.10;1.00;;;;;;5077106;28;20422;-81
2021/08/14 02:28:34;;;;;;;19.60;13.03;;;16.10;1.00;;;;;;5072123;28;20387;-80
2021/08/14 02:31:02;;;;;;;29.03;13.87;;;16.10;1.00;;;;;;5056679;28;20465;-81
2021/08/14 02:33:37;;;;;;;25.03;13.07;;;16.00;1.00;;;;;;5065446;28;20392;-81
2021/08/14 02:36:05;;;;;;;30.77;12.60;;;16.00;1.00;;;;;;5076580;28;20381;-81
2021/08/14 02:38:32;;;;;;;23.43;12.83;;;15.90;1.00;;;;;;5076369;28;20386;-81
2021/08/14 02:41:13;;;;;;;23.87;12.70;;;16.00;1.00;;;;;;5076430;28;20451;-81
2021/08/14 02:44:24;;;;;;;24.10;12.47;;;15.90;1.00;;;;;;5075183;28;20467;-81
2021/08/14 02:47:07;;;;;;;30.30;12.97;;;15.90;1.00;;;;;;5076633;28;20397;-80
2021/08/14 02:49:32;;;;;;;23.37;12.47;;;15.90;1.00;;;;;;5076821;28;20395;-80
2021/08/14 02:52:07;;;;;;;22.60;13.33;;;15.90;1.00;;;;;;5076481;28;20433;-81
2021/08/14 02:54:49;;;;;;;24.93;12.60;;;15.90;1.00;;;;;;5074995;28;20593;-80
2021/08/14 02:57:14;;;;;;;22.40;13.37;;;15.90;1.00;;;;;;5091850;28;20938;-81
2021/08/14 02:59:49;;;;;;;18.60;12.87;;;15.90;1.00;;;;;;5076180;28;20398;-81
2021/08/14 03:02:18;;;;;;;19.03;13.10;;;15.80;1.00;;;;;;5076054;28;20216;-81
2021/08/14 03:04:48;;;;;;;27.07;12.87;;;15.80;1.00;;;;;;5074514;28;21014;-81
2021/08/14 03:07:19;;;;;;;22.90;13.07;;;15.80;1.00;;;;;;5075933;28;20949;-81
2021/08/14 03:09:48;;;;;;;22.70;13.47;;;15.80;1.00;;;;;;5075845;28;20935;-81
2021/08/14 03:12:26;;;;;;;20.43;12.90;;;15.80;1.00;;;;;;5075926;28;20420;-81
2021/08/14 03:15:01;;;;;;;22.77;13.30;;;15.80;1.00;;;;;;5075982;28;20470;-81
2021/08/14 03:17:31;;;;;;;30.43;12.90;;;15.80;1.00;;;;;;5075733;28;20413;-81
2021/08/14 03:20:18;;;;;;;26.10;12.60;;;15.80;1.00;;;;;;5057746;28;20393;-81
2021/08/14 03:22:44;;;;;;;27.40;12.13;;;15.80;1.00;;;;;;5054391;28;20389;-81
2021/08/14 03:25:13;;;;;;;30.40;12.30;;;15.80;1.00;;;;;;5069541;28;20411;-81
2021/08/14 03:27:43;;;;;;;21.67;12.60;;;15.80;1.00;;;;;;5074391;28;20228;-81
2021/08/14 03:30:09;;;;;;;23.93;13.80;;;15.90;1.00;;;;;;5075662;28;20412;-81
2021/08/14 03:32:54;;;;;;;24.73;13.30;;;15.80;1.00;;;;;;5075596;28;20476;-81
2021/08/14 03:35:25;;;;;;;24.20;12.77;;;15.80;1.00;;;;;;5075908;28;20471;-81
2021/08/14 03:37:55;;;;;;;22.57;13.80;;;15.80;1.00;;;;;;5075578;28;20386;-81
2021/08/14 03:40:25;;;;;;;22.37;13.43;;;15.80;1.00;;;;;;5075359;28;20388;-81
2021/08/14 03:42:50;;;;;;;28.87;13.80;;;15.80;1.00;;;;;;5075392;28;20455;-81
2021/08/14 03:45:19;;;;;;;24.13;12.80;;;15.80;1.00;;;;;;5074972;28;20499;-81
2021/08/14 03:48:06;;;;;;;30.23;14.40;;;15.80;1.00;;;;;;5075206;28;20220;-81
2021/08/14 03:50:49;;;;;;;25.10;14.63;;;15.80;1.00;;;;;;5055839;28;20761;-81
2021/08/14 03:53:15;;;;;;;22.10;14.13;;;15.70;1.00;;;;;;5053875;28;20515;-81
2021/08/14 03:55:44;;;;;;;26.37;13.40;;;15.80;1.00;;;;;;5072735;28;20894;-81
2021/08/14 03:58:25;;;;;;;28.17;14.10;;;15.80;1.00;;;;;;5075056;28;20380;-81
2021/08/14 04:00:51;;;;;;;20.93;12.73;;;15.80;1.00;;;;;;5075345;28;20385;-81
2021/08/14 04:03:25;;;;;;;22.43;13.47;;;15.80;1.00;;;;;;5090423;28;20376;-85
2021/08/14 04:06:18;;;;;;;21.50;13.60;;;15.70;1.00;;;;;;5074045;28;20811;-80
2021/08/14 04:08:49;;;;;;;24.97;13.57;;;15.80;1.00;;;;;;5074698;28;20413;-81
2021/08/14 04:11:54;;;;;;;25.40;13.80;;;15.70;1.00;;;;;;5074703;28;20933;-81
2021/08/14 04:14:20;;;;;;;21.00;12.70;;;15.80;1.00;;;;;;5074595;28;20384;-81
2021/08/14 04:17:30;;;;;;;26.10;12.83;;;15.80;1.00;;;;;;5074692;28;20472;-81
2021/08/14 04:20:01;;;;;;;35.80;14.13;;;15.80;1.00;;;;;;5075425;28;20557;-81
2021/08/14 04:22:37;;;;;;;26.80;14.83;;;15.70;1.00;;;;;;5073256;28;20401;-81
2021/08/14 04:25:07;;;;;;;29.13;13.50;;;15.80;1.00;;;;;;5074406;28;20413;-81
2021/08/14 04:27:43;;;;;;;19.73;12.10;;;15.80;1.00;;;;;;5072503;28;20750;-81
2021/08/14 04:30:09;;;;;;;24.73;13.10;;;15.80;1.00;;;;;;5074499;28;20363;-81
2021/08/14 04:32:36;;;;;;;26.00;13.87;;;15.80;1.00;;;;;;5074357;28;20454;-81
2021/08/14 04:35:18;;;;;;;26.33;13.77;;;15.80;1.00;;;;;;5074893;28;20444;-81
2021/08/14 04:37:49;;;;;;;24.43;13.70;;;15.80;1.00;;;;;;5073937;28;20394;-81
2021/08/14 04:40:15;;;;;;;18.57;11.53;;;15.80;1.00;;;;;;5074206;28;20900;-81
2021/08/14 04:52:47;;;;;;;24.77;13.13;;;;;;;;;;5074381;28;20439;-85
2021/08/14 05:02:07;;;;;;;21.90;12.80;;;16.10;1.00;;;;;;5073742;28;20798;-81
2021/08/14 05:04:37;;;;;;;19.60;12.27;;;16.20;1.00;;;;;;5072629;28;20747;-81
2021/08/14 05:07:07;;;;;;;26.50;11.97;;;16.20;1.00;;;;;;5072734;28;20889;-81
2021/08/14 05:09:35;;;;;;;31.00;12.40;;;16.30;1.00;;;;;;5073934;28;20473;-81
2021/08/14 05:12:07;;;;;;;19.40;11.70;;;16.30;1.00;;;;;;5073717;28;20797;-80
2021/08/14 05:14:43;;;;;;;23.70;12.50;;;16.30;1.00;;;;;;5074042;28;20383;-80
2021/08/14 05:17:08;;;;;;;24.77;12.87;;;16.40;1.00;;;;;;5073693;28;20589;-80
2021/08/14 05:19:37;;;;;;;30.93;13.20;;;16.50;1.00;;;;;;5068941;28;20928;-80
2021/08/14 05:22:03;;;;;;;21.50;11.73;;;16.50;1.00;;;;;;5053886;28;20634;-80
2021/08/14 05:24:31;;;;;;;25.47;12.90;;;16.50;1.00;;;;;;5053577;28;20382;-80
2021/08/14 05:26:56;;;;;;;25.23;12.57;;;16.60;1.00;;;;;;5072203;28;20608;-80
2021/08/14 05:29:31;;;;;;;31.13;12.80;;;16.60;1.00;;;;;;5073669;28;20474;-80
2021/08/14 05:31:57;;;;;;;22.67;12.57;;;16.70;1.00;;;;;;5073508;28;20210;-80
2021/08/14 05:34:23;;;;;;;21.30;12.50;;;;;;;;;;5073660;28;20808;-80
2021/08/14 05:37:07;;;;;;;23.03;11.80;;;16.80;1.00;;;;;;5072451;28;20430;-80
2021/08/14 05:39:37;;;;;;;20.40;11.77;;;16.90;1.00;;;;;;5073551;28;20399;-80
2021/08/14 05:42:03;;;;;;;15.40;11.63;;;16.90;1.00;;;;;;5072209;28;20970;-80
2021/08/14 05:44:48;;;;;;;23.10;12.90;;;17.00;1.00;;;;;;5073363;28;20413;-80
2021/08/14 05:47:14;;;;;;;20.23;11.10;;;17.00;1.00;;;;;;5073422;28;20364;-80
2021/08/14 05:50:06;;;;;;;17.93;11.50;;;17.20;1.00;;;;;;5077410;28;20380;-80
2021/08/14 05:52:49;;;;;;;19.73;10.93;;;17.20;1.00;;;;;;5077863;28;20200;-81
2021/08/14 05:55:25;;;;;;;20.27;12.43;;;17.30;1.00;;;;;;5076200;28;20427;-80
2021/08/14 05:57:56;;;;;;;22.10;11.60;;;17.30;1.00;;;;;;5077404;28;20421;-80
2021/08/14 06:00:37;;;;;;;17.47;11.97;;;17.30;1.00;;;;;;5077393;28;20887;-80
2021/08/14 06:03:06;;;;;;;17.60;11.43;;;17.50;1.00;;;;;;5075926;28;20411;-81
2021/08/14 06:05:45;;;;;;;16.17;11.60;;;17.60;1.00;;;;;;5077117;28;20376;-81
2021/08/14 06:08:11;;;;;;;20.30;14.13;;;17.70;1.00;;;;;;5076988;28;20419;-80
2021/08/14 06:10:43;;;;;;;23.50;11.73;;;17.70;1.00;;;;;;5077468;28;20373;-81
2021/08/14 06:13:12;;;;;;;24.37;13.40;;;17.90;1.00;;;;;;5077097;28;20276;-80
2021/08/14 06:15:43;;;;;;;22.20;13.70;;;17.90;1.00;;;;;;5076942;28;20411;-80
2021/08/14 06:18:11;;;;;;;27.17;16.00;;;17.90;1.00;;;;;;5076968;28;20391;-80
2021/08/14 06:20:51;;;;;;;28.77;17.33;;;18.10;1.00;;;;;;5075728;28;20406;-80
2021/08/14 06:23:19;;;;;;;37.10;18.00;;;18.10;1.00;;;;;;5076981;28;20537;-81
2021/08/14 06:25:49;;;;;;;34.80;19.17;;;18.30;1.00;;;;;;5062193;28;20965;-80
2021/08/14 06:28:19;;;;;;;29.53;17.50;;;18.50;1.00;;;;;;5075382;28;20400;-80
2021/08/14 06:30:45;;;;;;;31.90;19.07;;;18.50;1.00;;;;;;5072207;28;20433;-80
2021/08/14 06:33:11;;;;;;;36.93;19.50;;;18.60;1.00;;;;;;5056702;28;20459;-80
2021/08/14 06:35:39;;;;;;;37.80;20.50;;;18.80;1.00;;;;;;5057954;28;20388;-80
2021/08/14 06:38:05;;;;;;;29.67;19.90;;;18.90;1.00;;;;;;5075701;28;20420;-81
2021/08/14 06:40:32;;;;;;;34.87;19.57;;;18.90;1.00;;;;;;5063282;28;20417;-81
2021/08/14 06:43:04;;;;;;;30.27;19.13;;;19.00;1.00;;;;;;5059869;28;20444;-81
2021/08/14 06:45:30;;;;;;;27.50;18.00;;;19.10;1.00;;;;;;5057740;28;20397;-85
2021/08/14 06:48:24;;;;;;;32.93;18.40;;;19.10;1.00;;;;;;5075561;28;20748;-91
2021/08/14 06:51:18;;;;;;;28.20;17.80;;;19.30;1.00;;;;;;5056911;28;20429;-91
2021/08/14 06:53:49;;;;;;;24.00;16.23;;;19.40;1.00;;;;;;5056916;28;20388;-87
2021/08/14 06:56:31;;;;;;;29.73;18.10;;;19.50;1.00;;;;;;5067148;28;20395;-85
2021/08/14 06:59:42;;;;;;;28.50;17.37;;;19.60;1.00;;;;;;5075148;28;20454;-86
2021/08/14 07:02:48;;;;;;;29.83;18.50;;;19.70;1.00;;;;;;5075138;28;20454;-83
2021/08/14 07:06:06;;;;;;;28.03;17.80;;;19.70;1.00;;;;;;5074642;28;20441;-82
2021/08/14 07:11:54;;;;;;;26.80;16.50;;;19.90;1.00;;;;;;5076014;28;20530;-83
2021/08/14 07:14:20;;;;;;;33.30;17.63;;;20.10;1.00;;;;;;5072272;28;20411;-84
2021/08/14 07:16:46;;;;;;;24.40;16.33;;;20.20;1.00;;;;;;5076027;28;20644;-84
2021/08/14 07:19:11;;;;;;;26.10;17.70;;;20.30;1.00;;;;;;5075794;28;20193;-84
2021/08/14 07:21:37;;;;;;;26.53;15.83;;;20.30;1.00;;;;;;5076551;28;20298;-83
2021/08/14 07:24:03;;;;;;;25.27;16.87;;;20.40;1.00;;;;;;5073947;28;20166;-83
2021/08/14 07:26:29;;;;;;;24.37;17.33;;;20.50;1.00;;;;;;5073437;28;20549;-84
2021/08/14 07:28:55;;;;;;;24.67;16.57;;;20.50;1.00;;;;;;5074040;28;20509;-85
2021/08/14 07:31:21;;;;;;;21.83;14.33;;;20.70;1.00;;;;;;5073652;28;20545;-88
2021/08/14 07:37:08;;;;;;;24.80;15.80;;;20.90;1.00;;;;;;5075795;28;20198;-86
2021/08/14 07:56:24;;;;;;;17.17;11.93;;;21.60;1.00;;;;;;5055926;28;20468;-89
2021/08/14 08:08:56;;;;;;;18.20;11.50;;;22.10;1.00;;;;;;5074639;28;20410;-88
2021/08/14 08:15:14;;;;;;;14.50;10.70;;;22.20;1.00;;;;;;5075149;28;20209;-86
2021/08/14 08:17:55;;;;;;;14.43;10.50;;;22.40;1.00;;;;;;5074321;28;20437;-88
2021/08/14 08:24:01;;;;;;;17.20;11.53;;;22.60;1.00;;;;;;5056209;28;20833;-83
2021/08/14 08:30:15;;;;;;;16.77;10.33;;;22.80;1.00;;;;;;5064747;28;20519;-89
2021/08/14 08:32:41;;;;;;;18.87;10.43;;;23.10;1.00;;;;;;5079865;28;20518;-89
2021/08/14 08:35:48;;;;;;;16.73;9.00;;;23.20;1.00;;;;;;5094039;28;20413;-90
2021/08/14 08:38:42;;;;;;;11.80;8.57;;;23.70;1.00;;;;;;5094675;28;20410;-89
2021/08/14 08:41:09;;;;;;;10.63;7.97;;;23.80;1.00;;;;;;5094114;28;20416;-89
2021/08/14 08:46:57;;;;;;;16.83;8.43;;;24.50;1.00;;;;;;5054763;28;20380;-88
2021/08/14 08:49:26;;;;;;;14.10;7.03;;;24.80;1.00;;;;;;5054796;28;20390;-89
2021/08/14 08:51:55;;;;;;;8.00;6.27;;;24.90;1.00;;;;;;5081203;28;20963;-88
2021/08/14 08:55:06;;;;;;;10.60;6.13;;;24.90;1.00;;;;;;5071363;28;20475;-89
2021/08/14 09:01:36;;;;;;;9.60;6.20;;;25.00;1.00;;;;;;5074263;28;20404;-85
2021/08/14 09:07:27;;;;;;;9.70;6.60;;;25.10;1.00;;;;;;5056609;28;20417;-81
2021/08/14 09:10:13;;;;;;;7.83;6.40;;;25.20;1.00;;;;;;5073798;28;20387;-82
2021/08/14 09:12:44;;;;;;;10.97;6.93;;;25.30;1.00;;;;;;5066653;28;20962;-81
2021/08/14 09:15:24;;;;;;;11.93;6.80;;;25.30;1.00;;;;;;5072154;28;20450;-82
2021/08/14 09:18:24;;;;;;;9.33;7.10;;;25.40;1.00;;;;;;5073555;28;20887;-82
2021/08/14 09:20:57;;;;;;;15.83;6.50;;;25.50;1.00;;;;;;5074041;28;20391;-83
2021/08/14 09:23:39;;;;;;;8.07;6.33;;;25.50;1.00;;;;;;5072936;28;20440;-80
2021/08/14 09:26:07;;;;;;;12.90;6.63;;;25.70;1.00;;;;;;5073727;28;20406;-80
2021/08/14 09:28:37;;;;;;;10.40;7.10;;;25.80;1.00;;;;;;5056469;28;20485;-81
2021/08/14 09:31:05;;;;;;;10.30;6.70;;;26.00;1.00;;;;;;5053455;28;20425;-82
2021/08/14 09:33:37;;;;;;;9.87;6.00;;;26.00;1.00;;;;;;5068161;28;20470;-78
2021/08/14 09:36:13;;;;;;;13.40;6.87;;;26.10;1.00;;;;;;5073689;28;20427;-78
2021/08/14 09:38:44;;;;;;;8.80;6.43;;;26.20;1.00;;;;;;5073204;28;20509;-79
2021/08/14 09:41:20;;;;;;;14.53;6.43;;;26.20;1.00;;;;;;5073762;28;21106;-80
2021/08/14 09:43:52;;;;;;;16.00;7.13;;;26.20;1.00;;;;;;5056596;28;20427;-80
2021/08/14 09:46:19;;;;;;;10.43;7.27;;;26.20;1.00;;;;;;5053456;28;20396;-80
2021/08/14 09:48:55;;;;;;;11.07;6.60;;;26.20;1.00;;;;;;5053331;28;20416;-81
2021/08/14 09:51:32;;;;;;;8.70;6.57;;;26.40;1.00;;;;;;5053024;28;20447;-81
2021/08/14 09:54:03;;;;;;;8.53;5.63;;;26.40;1.00;;;;;;5070909;28;20417;-81
2021/08/14 09:56:34;;;;;;;12.60;5.57;;;26.50;1.00;;;;;;5073391;28;20390;-81
2021/08/14 09:59:16;;;;;;;14.93;5.37;;;26.40;1.00;;;;;;5055042;28;20417;-82
2021/08/14 10:01:55;;;;;;;7.43;5.00;;;26.50;1.00;;;;;;5053080;28;20904;-81
2021/08/14 10:04:37;;;;;;;6.27;4.43;;;26.50;1.00;;;;;;5053235;28;20411;-82
2021/08/14 10:07:03;;;;;;;7.60;4.73;;;26.50;1.00;;;;;;5053874;28;20532;-83
2021/08/14 10:09:29;;;;;;;6.77;4.20;;;26.50;1.00;;;;;;5072997;28;20905;-83
2021/08/14 10:12:07;;;;;;;6.03;4.30;;;26.50;1.00;;;;;;5073268;28;20190;-84
2021/08/14 10:14:51;;;;;;;5.83;4.23;;;26.60;1.00;;;;;;5072869;28;20872;-84
2021/08/14 10:17:25;;;;;;;10.23;4.87;;;26.60;1.00;;;;;;5068137;28;20426;-84
2021/08/14 10:19:52;;;;;;;4.80;3.57;;;26.60;1.00;;;;;;5069850;28;20407;-84
2021/08/14 10:22:47;;;;;;;9.97;3.43;;;26.60;1.00;;;;;;5093446;28;20399;-84
2021/08/14 10:25:20;;;;;;;4.00;3.50;;;26.60;1.00;;;;;;5070785;28;20440;-84
2021/08/14 10:28:05;;;;;;;3.70;3.33;;;26.70;1.00;;;;;;5073106;28;20455;-84
2021/08/14 10:30:49;;;;;;;5.50;3.50;;;26.70;1.00;;;;;;5071555;28;20935;-84
2021/08/14 10:33:38;;;;;;;3.83;3.07;;;26.70;1.00;;;;;;5072581;28;20516;-84
2021/08/14 10:36:30;;;;;;;9.20;4.20;;;26.70;1.00;;;;;;5075900;28;20388;-84
2021/08/14 10:39:30;;;;;;;3.77;3.37;;;26.90;1.00;;;;;;5076712;28;20432;-83
2021/08/14 10:42:45;;;;;;;5.40;3.37;;;26.80;1.00;;;;;;5018404;28;20509;-83
2021/08/14 10:46:00;;;;;;;4.60;3.93;;;26.90;1.00;;;;;;4956717;29;20431;-84
2021/08/14 10:48:58;;;;;;;6.47;3.50;;;26.90;1.00;;;;;;4956310;29;20429;-83
2021/08/14 10:51:48;;;;;;;3.53;2.97;;;27.00;1.00;;;;;;4937025;29;20523;-83
2021/08/14 10:54:54;;;;;;;7.67;3.47;;;27.10;1.00;;;;;;4844143;29;20836;-84
2021/08/14 10:57:41;;;;;;;16.60;5.83;;;27.20;1.00;;;;;;4824671;29;20425;-82
2021/08/14 11:00:21;;;;;;;9.83;3.90;;;27.20;1.00;;;;;;4824576;29;20526;-82
2021/08/14 11:03:03;;;;;;;5.10;3.63;;;27.30;1.00;;;;;;4824210;29;20790;-80
2021/08/14 11:05:45;;;;;;;5.73;3.80;;;27.40;1.00;;;;;;4838845;29;20490;-79
2021/08/14 11:08:24;;;;;;;4.40;3.50;;;27.50;1.00;;;;;;4833516;29;20494;-79
2021/08/14 11:11:39;;;;;;;4.70;3.33;;;27.60;1.00;;;;;;4824862;29;20418;-79
2021/08/14 11:14:12;;;;;;;9.80;3.53;;;27.70;1.00;;;;;;4824681;29;20439;-77
2021/08/14 11:17:00;;;;;;;6.57;3.10;;;27.70;1.00;;;;;;4840358;29;20799;-76
2021/08/14 11:19:55;;;;;;;4.40;3.20;;;27.80;1.00;;;;;;4860007;29;20407;-76
2021/08/14 11:22:42;;;;;;;5.37;3.50;;;28.00;1.00;;;;;;4859149;29;20929;-79
2021/08/14 11:25:54;;;;;;;3.93;3.53;;;28.00;1.00;;;;;;4842780;29;20428;-82
2021/08/14 11:28:26;;;;;;;4.83;3.43;;;28.20;1.00;;;;;;4901113;29;20444;-80
2021/08/14 11:30:59;;;;;;;6.13;3.50;;;28.30;1.00;;;;;;4950586;28;20919;-79
2021/08/14 11:33:31;;;;;;;6.00;3.40;;;28.40;1.00;;;;;;5055531;28;20480;-79
2021/08/14 11:36:09;;;;;;;6.77;4.00;;;28.40;1.00;;;;;;5055720;28;20386;-79
2021/08/14 11:38:37;;;;;;;4.83;3.70;;;28.40;1.00;;;;;;5074891;28;20415;-79
2021/08/14 11:41:16;;;;;;;4.70;3.83;;;28.40;1.00;;;;;;5075849;28;20397;-78
2021/08/14 11:43:42;;;;;;;4.63;3.33;;;28.50;1.00;;;;;;5057754;28;20429;-79
2021/08/14 11:46:09;;;;;;;8.00;4.30;;;28.70;1.00;;;;;;5055356;28;20431;-80
2021/08/14 11:48:45;;;;;;;4.27;3.87;;;28.70;1.00;;;;;;5067769;28;20422;-79
2021/08/14 11:51:22;;;;;;;4.90;3.70;;;28.80;1.00;;;;;;5075474;28;20416;-79
2021/08/14 11:54:10;;;;;;;7.37;3.53;;;28.80;1.00;;;;;;5075214;28;20393;-79
2021/08/14 11:57:06;;;;;;;3.83;3.30;;;28.80;1.00;;;;;;5059252;28;20406;-79
2021/08/14 11:59:34;;;;;;;4.63;3.67;;;28.90;1.00;;;;;;5066807;28;20790;-77
2021/08/14 12:02:07;;;;;;;7.10;3.40;;;28.90;1.00;;;;;;5070451;28;20845;-79
2021/08/14 12:04:37;;;;;;;3.70;3.33;;;29.00;1.00;;;;;;5073061;28;20463;-76
2021/08/14 12:07:03;;;;;;;5.60;3.40;;;29.10;1.00;;;;;;5070249;28;20446;-78
2021/08/14 12:09:37;;;;;;;7.60;3.60;;;29.20;1.00;;;;;;5074863;28;20412;-77
2021/08/14 12:12:03;;;;;;;4.27;3.73;;;29.30;1.00;;;;;;5073021;28;20189;-77
2021/08/14 12:14:57;;;;;;;3.83;3.50;;;29.30;1.00;;;;;;5053864;28;20434;-77
2021/08/14 12:17:57;;;;;;;4.40;3.67;;;29.30;1.00;;;;;;5064214;28;20803;-77
2021/08/14 12:20:30;;;;;;;6.07;3.20;;;29.30;1.00;;;;;;5022907;28;20427;-76
2021/08/14 12:23:26;;;;;;;5.53;3.80;;;29.30;1.00;;;;;;5032705;28;20418;-76
2021/08/14 12:26:00;;;;;;;4.60;3.43;;;29.40;1.00;;;;;;5032589;28;20418;-77
2021/08/14 12:28:58;;;;;;;4.50;3.13;;;29.50;1.00;;;;;;5032734;28;20489;-79
2021/08/14 12:31:25;;;;;;;4.30;3.03;;;29.50;1.00;;;;;;5032271;28;20429;-80
2021/08/14 12:33:56;;;;;;;4.47;3.63;;;29.60;1.00;;;;;;5015812;28;20854;-79
2021/08/14 12:36:40;;;;;;;3.70;3.30;;;29.60;1.00;;;;;;5032384;28;20813;-80
2021/08/14 12:39:13;;;;;;;3.50;2.90;;;29.60;1.00;;;;;;5019593;28;20428;-79
2021/08/14 12:41:55;;;;;;;4.87;3.47;;;29.70;1.00;;;;;;5032384;28;20753;-79
2021/08/14 12:44:59;;;;;;;5.80;3.43;;;29.80;1.00;;;;;;5018026;28;20418;-77
2021/08/14 12:47:34;;;;;;;5.70;3.00;;;29.80;1.00;;;;;;4954141;28;20441;-77
2021/08/14 12:50:14;;;;;;;3.60;3.10;;;29.90;1.00;;;;;;4966985;28;20466;-77
2021/08/14 12:52:52;;;;;;;4.30;2.83;;;30.10;1.00;;;;;;4957278;28;20480;-77
2021/08/14 12:55:29;;;;;;;3.30;3.00;;;30.10;1.00;;;;;;4951335;28;20420;-77
2021/08/14 12:58:01;;;;;;;4.70;3.23;;;30.20;1.00;;;;;;4992618;28;20496;-77
2021/08/14 13:00:48;;;;;;;4.17;3.40;;;30.30;1.00;;;;;;5012527;28;20458;-80
2021/08/14 13:03:20;;;;;;;4.83;3.23;;;30.40;1.00;;;;;;5011926;28;20434;-80
2021/08/14 13:05:46;;;;;;;6.17;3.80;;;30.50;1.00;;;;;;5013342;28;20444;-80
2021/08/14 13:08:15;;;;;;;3.83;3.30;;;30.50;1.00;;;;;;5009134;28;20425;-80
2021/08/14 13:10:43;;;;;;;3.10;2.90;;;30.50;1.00;;;;;;4992013;28;20863;-80
2021/08/14 13:13:13;;;;;;;3.60;3.07;;;30.60;1.00;;;;;;4987706;28;20832;-79
2021/08/14 13:16:12;;;;;;;6.37;3.20;;;30.70;1.00;;;;;;4992539;28;20492;-80
2021/08/14 13:18:43;;;;;;;5.80;3.07;;;30.80;1.00;;;;;;4996584;28;20412;-79
2021/08/14 13:21:19;;;;;;;7.50;3.13;;;30.80;1.00;;;;;;5029272;28;20413;-80
2021/08/14 13:24:06;;;;;;;4.50;2.70;;;30.90;1.00;;;;;;5053603;28;20817;-80
2021/08/14 13:26:37;;;;;;;4.47;3.50;;;30.90;1.00;;;;;;5053531;28;20924;-80
2021/08/14 13:29:11;;;;;;;8.23;3.00;;;30.80;1.00;;;;;;5056909;28;20959;-77
2021/08/14 13:31:41;;;;;;;3.90;3.30;;;30.90;1.00;;;;;;5073806;28;20499;-77
2021/08/14 13:34:09;;;;;;;4.33;3.17;;;31.00;1.00;;;;;;5073920;28;20799;-77
2021/08/14 13:36:43;;;;;;;3.93;3.17;;;31.10;1.00;;;;;;5073836;28;20405;-77
2021/08/14 13:39:09;;;;;;;5.23;2.93;;;31.10;1.00;;;;;;5073278;28;20413;-77
2021/08/14 13:41:37;;;;;;;10.20;3.10;;;31.10;1.00;;;;;;5072154;28;20789;-76
2021/08/14 13:44:13;;;;;;;3.40;3.10;;;31.20;1.00;;;;;;5056847;28;20680;-77
2021/08/14 13:46:38;;;;;;;4.20;3.60;;;31.30;1.00;;;;;;5058881;28;20761;-75
2021/08/14 13:49:04;;;;;;;8.50;3.23;;;31.60;1.00;;;;;;5071061;28;20435;-76
2021/08/14 13:51:31;;;;;;;5.33;3.23;;;31.60;1.00;;;;;;5052153;28;20175;-76
2021/08/14 13:53:57;;;;;;;3.13;2.83;;;31.40;1.00;;;;;;5061473;28;20179;-76
2021/08/14 13:56:26;;;;;;;3.80;3.20;;;31.50;1.00;;;;;;5071070;28;20426;-76
2021/08/14 13:58:52;;;;;;;4.00;2.70;;;31.50;1.00;;;;;;5066943;28;20637;-77
2021/08/14 14:01:18;;;;;;;3.10;2.80;;;31.60;1.00;;;;;;5062101;28;20429;-75
2021/08/14 14:03:44;;;;;;;3.30;3.00;;;31.60;1.00;;;;;;5072213;28;20217;-75
2021/08/14 14:06:10;;;;;;;3.63;2.80;;;31.50;1.00;;;;;;5062905;28;20176;-75
2021/08/14 14:08:35;;;;;;;3.70;3.37;;;31.50;1.00;;;;;;5064124;28;20187;-76
2021/08/14 14:11:01;;;;;;;3.20;2.90;;;31.50;1.00;;;;;;5066444;28;20569;-76
2021/08/14 14:13:31;;;;;;;3.30;2.93;;;31.50;1.00;;;;;;5072382;28;20199;-76
2021/08/14 14:15:56;;;;;;;3.50;3.20;;;31.60;1.00;;;;;;5068836;28;20187;-81
2021/08/14 14:18:25;;;;;;;3.07;2.87;;;31.60;1.00;;;;;;5076865;28;20434;-81
2021/08/14 14:21:19;;;;;;;3.50;3.20;;;31.70;1.00;;;;;;5059576;28;20210;-81
2021/08/14 14:24:01;;;;;;;3.40;3.10;;;31.70;1.00;;;;;;5056861;28;20463;-80
2021/08/14 14:27:01;;;;;;;5.10;2.90;;;31.70;1.00;;;;;;5057718;28;20402;-80
2021/08/14 14:29:31;;;;;;;4.23;3.53;;;31.90;1.00;;;;;;5076900;28;20922;-76
2021/08/14 14:31:57;;;;;;;6.63;3.43;;;32.00;1.00;;;;;;5076674;28;20460;-76
2021/08/14 14:34:25;;;;;;;4.03;2.77;;;32.00;1.00;;;;;;5073394;28;20482;-76
2021/08/14 14:36:51;;;;;;;3.27;2.97;;;31.90;1.00;;;;;;5064878;28;20414;-76
2021/08/14 14:39:16;;;;;;;4.67;3.10;;;31.90;1.00;;;;;;5065334;28;20420;-76
2021/08/14 14:41:42;;;;;;;3.50;3.03;;;32.10;1.00;;;;;;5061939;28;20256;-76